Map

Track Data

SID SEASON NUMBER BASIN SUBBASIN NAME ISO_TIME NATURE LAT LON WMO_WIND WMO_PRES WMO_AGENCY TRACK_TYPE DIST2LAND LANDFALL IFLAG USA_AGENCY USA_ATCF_ID USA_LAT USA_LON USA_RECORD USA_STATUS USA_WIND USA_PRES USA_SSHS USA_R34_NE USA_R34_SE USA_R34_SW USA_R34_NW USA_R50_NE USA_R50_SE USA_R50_SW USA_R50_NW USA_R64_NE USA_R64_SE USA_R64_SW USA_R64_NW USA_POCI USA_ROCI USA_RMW USA_EYE TOKYO_LAT TOKYO_LON TOKYO_GRADE TOKYO_WIND TOKYO_PRES TOKYO_R50_DIR TOKYO_R50_LONG TOKYO_R50_SHORT TOKYO_R30_DIR TOKYO_R30_LONG TOKYO_R30_SHORT TOKYO_LAND CMA_LAT CMA_LON CMA_CAT CMA_WIND CMA_PRES HKO_LAT HKO_LON HKO_CAT HKO_WIND HKO_PRES NEWDELHI_LAT NEWDELHI_LON NEWDELHI_GRADE NEWDELHI_WIND NEWDELHI_PRES NEWDELHI_CI NEWDELHI_DP NEWDELHI_POCI REUNION_LAT REUNION_LON REUNION_TYPE REUNION_WIND REUNION_PRES REUNION_TNUM REUNION_CI REUNION_RMW REUNION_R34_NE REUNION_R34_SE REUNION_R34_SW REUNION_R34_NW REUNION_R50_NE REUNION_R50_SE REUNION_R50_SW REUNION_R50_NW REUNION_R64_NE REUNION_R64_SE REUNION_R64_SW REUNION_R64_NW BOM_LAT BOM_LON BOM_TYPE BOM_WIND BOM_PRES BOM_TNUM BOM_CI BOM_RMW BOM_R34_NE BOM_R34_SE BOM_R34_SW BOM_R34_NW BOM_R50_NE BOM_R50_SE BOM_R50_SW BOM_R50_NW BOM_R64_NE BOM_R64_SE BOM_R64_SW BOM_R64_NW BOM_ROCI BOM_POCI BOM_EYE BOM_POS_METHOD BOM_PRES_METHOD NADI_LAT NADI_LON NADI_CAT NADI_WIND NADI_PRES WELLINGTON_LAT WELLINGTON_LON WELLINGTON_WIND WELLINGTON_PRES DS824_LAT DS824_LON DS824_STAGE DS824_WIND DS824_PRES TD9636_LAT TD9636_LON TD9636_STAGE TD9636_WIND TD9636_PRES TD9635_LAT TD9635_LON TD9635_WIND TD9635_PRES TD9635_ROCI NEUMANN_LAT NEUMANN_LON NEUMANN_CLASS NEUMANN_WIND NEUMANN_PRES MLC_LAT MLC_LON MLC_CLASS MLC_WIND MLC_PRES USA_GUST BOM_GUST BOM_GUST_PER REUNION_GUST REUNION_GUST_PER USA_SEAHGT USA_SEARAD_NE USA_SEARAD_SE USA_SEARAD_SW USA_SEARAD_NW STORM_SPEED STORM_DIR
2002017S07078 2002 4 SI MM DINA 2002-01-16 12:00:00 TS -7.06667 78.3000 20 1004 reunion main 1478 1478 O____O______O_ jtwc_sh SH102002 -6.80000 77.9000 TD 25 1002 -1 -7.60000 79.1000 2 20 1004 1.50000 1.50000 -6.80000 77.9000 TC 25 14 256
2002017S07078 2002 4 SI MM DINA 2002-01-16 15:00:00 TS -7.23946 77.5944 main 1505 1505 P____P______P_ SH102002 -7.02276 77.2552 TD 25 1002 -1 -7.67287 78.2728 2 22 1003 -7.02276 77.2552 TC 25 14 255
2002017S07078 2002 4 SI MM DINA 2002-01-16 18:00:00 TS -7.43333 76.9667 25 1002 reunion main 1543 1543 O____O______O_ jtwc_sh SH102002 -7.30000 76.7000 TD 25 1002 -1 -7.70000 77.5000 2 25 1002 2.00000 2.00000 -7.30000 76.7000 TC 25 12 248
2002017S07078 2002 4 SI MM DINA 2002-01-16 21:00:00 TS -7.68651 76.4630 main 1590 1590 P____P______P_ SH102002 -7.68234 76.2847 TD 25 1002 -1 -7.69484 76.8195 2 25 1001 -7.68234 76.2847 TC 25 12 235
2002017S07078 2002 4 SI MM DINA 2002-01-17 00:00:00 TS -8.10000 76.0000 25 1000 reunion main 1649 1649 O____O______O_ jtwc_sh SH102002 -8.20000 75.9000 TD 25 1002 -1 1007 120 20 -7.90000 76.2000 2 25 1000 2.00000 2.00000 -8.20000 75.9000 TC 25 15 221
2002017S07078 2002 4 SI MM DINA 2002-01-17 03:00:00 TS -8.78149 75.5041 main 1741 1741 P____P______P_ SH102002 -8.89236 75.4450 TD 25 1002 -1 1007 135 20 -8.55975 75.6225 2 27 998 -8.89236 75.4450 TC 25 18 216
2002017S07078 2002 4 SI MM DINA 2002-01-17 06:00:00 TS -9.53333 74.9333 30 997 reunion main 1837 1837 O____O______O_ jtwc_sh SH102002 -9.60000 74.9000 TD 25 1003 -1 1008 150 20 -9.40000 75.0000 2 30 997 2.50000 2.50000 -9.60000 74.9000 TC 25 19 223
2002017S07078 2002 4 SI MM DINA 2002-01-17 09:00:00 TS -10.1400 74.2324 main 1926 1926 P____P______P_ SH102002 -10.1375 74.2298 TD 27 1001 -1 1006 165 32 -10.1449 74.2376 2 33 995 -10.1375 74.2298 TC 27 18 232
2002017S07078 2002 4 SI MM DINA 2002-01-17 12:00:00 TS -10.6667 73.4667 37 993 reunion main 1992 1894 O____O______O_ jtwc_sh SH102002 -10.6000 73.5000 TD 30 1000 -1 1004 180 45 -10.8000 73.4000 3 37 993 3.00000 3.00000 -10.6000 73.5000 TC 30 18 237
2002017S07078 2002 4 SI MM DINA 2002-01-17 15:00:00 TS -11.1366 72.6990 main 1894 1806 P____P______P_ SH102002 -11.0574 72.7923 TD 42 992 0 30 30 30 30 1005 165 37 -11.2951 72.5123 3 43 989 -11.0574 72.7923 TC 42 17 239
2002017S07078 2002 4 SI MM DINA 2002-01-17 18:00:00 TS -11.5667 71.9667 50 985 reunion main 1800 1720 O____O______O_ jtwc_sh SH102002 -11.5000 72.1000 TS 55 984 0 60 60 60 60 1007 150 30 -11.7000 71.7000 3 50 985 3.50000 3.50000 -11.5000 72.1000 TC 55 16 238
2002017S07078 2002 4 SI MM DINA 2002-01-17 21:00:00 TS -11.9948 71.3197 main 1711 1641 P____P______P_ SH102002 -11.9424 71.4273 TS 60 980 0 62 62 62 62 1007 123 30 -12.0996 71.1046 3 55 980 -11.9424 71.4273 TC 60 15 234
2002017S07078 2002 4 SI MM DINA 2002-01-18 00:00:00 TS -12.4333 70.7333 60 975 reunion main 1632 1556 O____O______O_ jtwc_sh SH102002 -12.4000 70.8000 TY 65 976 1 65 65 65 65 1007 97 30 -12.5000 70.6000 3 60 975 4.00000 4.00000 -12.4000 70.8000 TC 65 15 231
2002017S07078 2002 4 SI MM DINA 2002-01-18 03:00:00 TS -12.8991 70.1606 main 1556 1480 P____P______P_ SH102002 -12.8923 70.2273 TY 67 974 1 65 65 65 65 1006 138 30 -12.9125 70.0273 3 62 972 -12.8923 70.2273 TC 67 14 228
2002017S07078 2002 4 SI MM DINA 2002-01-18 06:00:00 TS -13.4000 69.6333 65 970 reunion main 1471 1405 O____O______O_ jtwc_sh SH102002 -13.4000 69.7000 TY 70 972 1 65 65 65 65 1006 180 30 -13.4000 69.5000 4 65 970 4.50000 4.50000 -13.4000 69.7000 TC 70 14 223
2002017S07078 2002 4 SI MM DINA 2002-01-18 09:00:00 TS -13.9524 69.1465 main 1390 1324 P____P______P_ SH102002 -13.8999 69.1773 TY 75 967 1 82 82 82 82 1006 165 30 -14.0573 69.0849 4 67 967 -13.8999 69.1773 TC 75 14 219
2002017S07078 2002 4 SI MM DINA 2002-01-18 12:00:00 TS -14.5000 68.7000 70 965 reunion main 1324 1260 O____O______O_ jtwc_sh SH102002 -14.4000 68.7000 TY 80 963 1 100 100 100 100 1006 150 30 -14.7000 68.7000 4 70 965 4.50000 4.50000 -14.4000 68.7000 TC 80 14 219
2002017S07078 2002 4 SI MM DINA 2002-01-18 15:00:00 TS -15.0117 68.2509 main 1260 1201 P____P______P_ SH102002 -14.9374 68.2626 TY 82 960 1 100 100 100 100 1005 150 30 -15.1601 68.2275 4 75 960 -14.9374 68.2626 TC 82 12 221
2002017S07078 2002 4 SI MM DINA 2002-01-18 18:00:00 TS -15.4333 67.8667 80 955 reunion main 1201 1156 O____O______O_ jtwc_sh SH102002 -15.4000 67.9000 TY 85 958 2 100 100 100 100 1005 150 30 -15.5000 67.8000 4 80 955 5.00000 5.00000 -15.4000 67.9000 TC 85 10 222
2002017S07078 2002 4 SI MM DINA 2002-01-18 21:00:00 TS -15.7132 67.5889 main 1156 1127 P____P______P_ SH102002 -15.6799 67.6272 TY 87 956 2 100 110 110 110 1005 165 22 -15.7799 67.5123 4 80 955 -15.6799 67.6272 TC 87 7 224
2002017S07078 2002 4 SI MM DINA 2002-01-19 00:00:00 TS -15.9333 67.3667 80 955 reunion main 1127 1093 O____O______O_ jtwc_sh SH102002 -15.9000 67.4000 TY 90 954 2 100 120 120 120 1005 180 15 -16.0000 67.3000 4 80 955 4.50000 5.00000 -15.9000 67.4000 TC 90 7 221
2002017S07078 2002 4 SI MM DINA 2002-01-19 03:00:00 TS -16.1999 67.1432 main 1083 1049 P____P______P_ SH102002 -16.1999 67.1574 TY 90 954 2 105 115 120 120 1004 155 15 -16.1999 67.1148 4 80 955 -16.1999 67.1574 TC 90 7 220
2002017S07078 2002 4 SI MM DINA 2002-01-19 06:00:00 TS -16.4667 66.9000 80 955 reunion main 1049 1011 O____O______O_ jtwc_sh SH102002 -16.5000 66.9000 TY 90 954 2 110 110 120 120 1003 130 15 -16.4000 66.9000 4 80 955 5.00000 5.00000 -16.5000 66.9000 TC 90 8 225
2002017S07078 2002 4 SI MM DINA 2002-01-19 09:00:00 TS -16.7342 66.5909 main 1011 968 P____P______P_ SH102002 -16.7725 66.6075 TY 92 951 2 110 110 120 120 1003 130 15 -16.6576 66.5576 4 80 954 -16.7725 66.6075 TC 92 8 231
2002017S07078 2002 4 SI MM DINA 2002-01-19 12:00:00 TS -16.9667 66.2667 80 953 reunion main 968 934 O____O______O_ jtwc_sh SH102002 -17.0000 66.3000 TY 95 949 2 110 110 120 120 1003 130 15 -16.9000 66.2000 4 80 953 5.00000 5.00000 -17.0000 66.3000 TC 95 7 236
2002017S07078 2002 4 SI MM DINA 2002-01-19 15:00:00 TS -17.1216 65.9881 main 934 896 P____P______P_ SH102002 -17.1574 66.0073 TY 100 943 3 110 130 130 120 1002 135 15 -17.0498 65.9497 4 85 946 -17.1574 66.0073 TC 100 6 241
2002017S07078 2002 4 SI MM DINA 2002-01-19 18:00:00 TS -17.2667 65.7000 90 940 reunion main 896 858 O____O______O_ jtwc_sh SH102002 -17.3000 65.7000 TY 105 938 3 110 150 140 120 1001 140 15 -17.2000 65.7000 4 90 940 5.50000 5.50000 -17.3000 65.7000 TC 105 7 239
2002017S07078 2002 4 SI MM DINA 2002-01-19 21:00:00 TS -17.4808 65.3675 main 858 810 P____P______P_ SH102002 -17.4999 65.3650 TY 112 930 3 110 150 150 120 1001 145 15 -17.4425 65.3725 4 97 932 -17.4999 65.3650 TC 112 8 237
2002017S07078 2002 4 SI MM DINA 2002-01-20 00:00:00 TS -17.7000 65.0000 105 925 reunion main 810 763 O____O______O_ jtwc_sh SH102002 -17.7000 65.0000 TY 120 922 4 110 150 160 120 1001 150 15 -17.7000 65.0000 4 105 925 6.00000 6.00000 -17.7000 65.0000 TC 120 8 241
2002017S07078 2002 4 SI MM DINA 2002-01-20 03:00:00 TS -17.8791 64.6174 main 763 719 P____P______P_ SH102002 -17.8574 64.6149 TY 125 916 4 95 140 145 100 1000 135 20 -17.9224 64.6225 4 110 917 -17.8574 64.6149 TC 125 8 246
2002017S07078 2002 4 SI MM DINA 2002-01-20 06:00:00 TS -18.0333 64.2000 115 910 reunion main 719 672 O____O______O_ jtwc_sh SH102002 -18.0000 64.2000 ST 130 910 4 80 130 130 80 999 120 25 -18.1000 64.2000 4 115 910 6.50000 6.50000 -18.0000 64.2000 TC 130 9 251
2002017S07078 2002 4 SI MM DINA 2002-01-20 09:00:00 TS -18.1767 63.7333 main 662 618 P____P______P_ SH102002 -18.1575 63.7500 ST 130 910 4 80 130 130 80 999 120 25 -18.2151 63.6999 4 115 910 -18.1575 63.7500 TC 130 9 253
2002017S07078 2002 4 SI MM DINA 2002-01-20 12:00:00 TS -18.3000 63.2667 115 910 reunion main 618 575 O____O______O_ jtwc_sh SH102002 -18.3000 63.3000 ST 130 910 4 80 130 130 80 999 120 25 -18.3000 63.2000 4 115 910 6.50000 6.50000 -18.3000 63.3000 TC 130 8 255
2002017S07078 2002 4 SI MM DINA 2002-01-20 15:00:00 TS -18.3972 62.8715 main 575 532 P____P______P_ SH102002 -18.3998 62.9073 ST 130 910 4 90 130 135 100 998 125 25 -18.3922 62.7998 4 112 912 -18.3998 62.9073 TC 130 8 255
2002017S07078 2002 4 SI MM DINA 2002-01-20 18:00:00 TS -18.5000 62.4667 110 915 reunion main 532 479 O____O______O_ jtwc_sh SH102002 -18.5000 62.5000 ST 130 910 4 100 130 140 120 998 130 25 -18.5000 62.4000 4 110 915 6.00000 6.50000 -18.5000 62.5000 TC 130 9 253
2002017S07078 2002 4 SI MM DINA 2002-01-20 21:00:00 TS -18.6575 61.9818 main 475 422 P____P______P_ SH102002 -18.6575 62.0151 ST 127 913 4 95 125 135 115 998 130 25 -18.6575 61.9151 4 110 915 -18.6575 62.0151 TC 127 10 252
2002017S07078 2002 4 SI MM DINA 2002-01-21 00:00:00 TS -18.8000 61.4667 110 915 reunion main 422 369 O____O______O_ jtwc_sh SH102002 -18.8000 61.5000 TY 125 916 4 90 120 130 110 998 130 25 -18.8000 61.4000 4 110 915 6.00000 6.50000 -18.8000 61.5000 TC 125 10 258
2002017S07078 2002 4 SI MM DINA 2002-01-21 03:00:00 TS -18.8574 60.9590 main 369 322 P____P______P_ SH102002 -18.8574 60.9923 TY 122 919 4 100 125 150 110 999 127 25 -18.8574 60.8923 4 107 920 -18.8574 60.9923 TC 122 10 264
2002017S07078 2002 4 SI MM DINA 2002-01-21 06:00:00 TS -18.9000 60.4667 105 925 reunion main 322 270 O____O______O_ jtwc_sh SH102002 -18.9000 60.5000 TY 120 922 4 110 130 170 110 1000 125 25 -18.9000 60.4000 4 105 925 5.50000 6.00000 -18.9000 60.5000 TC 120 9 261
2002017S07078 2002 4 SI MM DINA 2002-01-21 09:00:00 TS -18.9923 60.0167 main 270 228 P____P______P_ SH102002 -18.9923 60.0500 TY 120 922 4 110 130 170 110 1000 125 25 -18.9923 59.9500 4 102 927 -18.9923 60.0500 TC 120 9 257
2002017S07078 2002 4 SI MM DINA 2002-01-21 12:00:00 TS -19.1000 59.5667 100 930 reunion main 228 177 O____O______O_ jtwc_sh SH102002 -19.1000 59.6000 TY 120 922 4 110 130 170 110 1000 125 25 -19.1000 59.5000 4 100 930 6.00000 6.00000 -19.1000 59.6000 TC 120 9 256
2002017S07078 2002 4 SI MM DINA 2002-01-21 15:00:00 TS -19.2074 59.0767 main 177 129 P____P______P_ SH102002 -19.2074 59.1075 TY 120 922 4 110 130 170 110 1000 125 27 -19.2074 59.0150 4 100 930 -19.2074 59.1075 TC 120 10 258
2002017S07078 2002 4 SI MM DINA 2002-01-21 18:00:00 TS -19.3000 58.5667 100 930 reunion main 129 98 O____O______O_ jtwc_sh SH102002 -19.3000 58.6000 TY 120 922 4 110 130 170 110 1000 125 30 -19.3000 58.5000 4 100 930 5.50000 6.00000 -19.3000 58.6000 TC 120 10 262
2002017S07078 2002 4 SI MM DINA 2002-01-21 21:00:00 TS -19.3474 58.0448 main 94 78 P____P______P_ SH102002 -19.3424 58.0998 TY 120 922 4 110 135 155 110 1000 167 30 -19.3576 57.9349 4 100 930 -19.3424 58.0998 TC 120 10 264
2002017S07078 2002 4 SI MM DINA 2002-01-22 00:00:00 TS -19.4000 57.5333 100 930 reunion main 78 74 O____O______O_ jtwc_sh SH102002 -19.4000 57.6000 TY 120 922 4 110 140 140 110 1000 210 30 -19.4000 57.4000 4 100 930 5.50000 6.00000 -19.4000 57.6000 TC 120 9 261
2002017S07078 2002 4 SI MM DINA 2002-01-22 03:00:00 TS -19.4940 57.0566 main 79 79 P____P______P_ SH102002 -19.5349 57.0926 TY 120 922 4 110 135 155 110 1000 167 30 -19.4122 56.9847 4 100 930 -19.5349 57.0926 TC 120 9 255
2002017S07078 2002 4 SI MM DINA 2002-01-22 06:00:00 TS -19.6333 56.6000 100 930 reunion main 109 109 O____O______O_ jtwc_sh SH102002 -19.7000 56.6000 TY 120 922 4 110 130 170 110 1000 125 30 -19.5000 56.6000 4 100 930 6.00000 6.00000 -19.7000 56.6000 TC 120 9 249
2002017S07078 2002 4 SI MM DINA 2002-01-22 09:00:00 TS -19.8282 56.1451 main 140 111 P____P______P_ SH102002 -19.8499 56.1349 TY 120 922 4 110 130 170 110 1000 125 30 -19.7849 56.1653 4 100 930 -19.8499 56.1349 TC 120 9 245
2002017S07078 2002 4 SI MM DINA 2002-01-22 12:00:00 TS -20.0333 55.7000 100 930 reunion main 111 89 O____O______O_ jtwc_sh SH102002 -20.0000 55.7000 TY 120 922 4 110 130 170 110 1000 125 30 -20.1000 55.7000 4 100 930 6.00000 6.00000 -20.0000 55.7000 TC 120 9 248
2002017S07078 2002 4 SI MM DINA 2002-01-22 15:00:00 TS -20.1733 55.2464 main 90 84 P____P______P_ SH102002 -20.1274 55.2773 TY 117 924 4 130 155 175 130 1000 127 30 -20.2651 55.1847 4 100 930 -20.1274 55.2773 TC 117 9 250
2002017S07078 2002 4 SI MM DINA 2002-01-22 18:00:00 TS -20.3333 54.8333 100 930 reunion main 93 83 O____O______O_ jtwc_sh SH102002 -20.3000 54.9000 TY 115 927 4 150 180 180 150 1000 130 30 -20.4000 54.7000 4 100 930 6.00000 6.00000 -20.3000 54.9000 TC 115 8 240
2002017S07078 2002 4 SI MM DINA 2002-01-22 21:00:00 TS -20.5874 54.4942 main 91 91 P____P______P_ SH102002 -20.5924 54.5850 TY 115 927 4 130 160 160 130 1000 170 30 -20.5774 54.3124 4 100 930 -20.5924 54.5850 TC 115 8 228
2002017S07078 2002 4 SI MM DINA 2002-01-23 00:00:00 TS -20.8667 54.2000 100 930 reunion main 106 106 O____O______O_ jtwc_sh SH102002 -20.9000 54.3000 TY 115 927 4 110 140 140 110 1000 210 30 -20.8000 54.0000 4 100 930 5.50000 6.00000 -20.9000 54.3000 TC 115 7 228
2002017S07078 2002 4 SI MM DINA 2002-01-23 03:00:00 TS -21.0900 53.9065 main 134 134 P____P______P_ SH102002 -21.0925 53.9922 TY 115 927 4 110 140 140 110 1000 170 30 -21.0849 53.7349 4 100 930 -21.0925 53.9922 TC 115 7 229
2002017S07078 2002 4 SI MM DINA 2002-01-23 06:00:00 TS -21.3333 53.6333 100 930 reunion main 167 167 O____O______O_ jtwc_sh SH102002 -21.3000 53.7000 TY 115 927 4 110 140 140 110 1000 130 30 -21.4000 53.5000 4 100 930 5.50000 6.00000 -21.3000 53.7000 TC 115 8 223
2002017S07078 2002 4 SI MM DINA 2002-01-23 09:00:00 TS -21.6392 53.3584 main 194 194 P____P______P_ SH102002 -21.6200 53.4275 TY 115 927 4 110 140 140 110 1000 130 30 -21.6776 53.2200 4 97 932 -21.6200 53.4275 TC 115 8 215
2002017S07078 2002 4 SI MM DINA 2002-01-23 12:00:00 TS -22.0000 53.1333 95 935 reunion main 239 239 O____O______O_ jtwc_sh SH102002 -22.0000 53.2000 TY 115 927 4 110 140 140 110 1000 130 30 -22.0000 53.0000 4 95 935 5.00000 5.50000 -22.0000 53.2000 TC 115 8 204
2002017S07078 2002 4 SI MM DINA 2002-01-23 15:00:00 TS -22.3891 53.0038 main 267 267 P____P______P_ SH102002 -22.3699 53.0348 TY 107 935 3 110 140 140 110 1000 130 30 -22.4274 52.9420 4 92 937 -22.3699 53.0348 TC 107 9 195
2002017S07078 2002 4 SI MM DINA 2002-01-23 18:00:00 TS -22.8333 52.9000 90 940 reunion main 298 298 O____O______O_ jtwc_sh SH102002 -22.8000 52.9000 TY 100 944 3 110 140 140 110 1000 130 30 -22.9000 52.9000 4 90 940 4.50000 5.50000 -22.8000 52.9000 TC 100 10 195
2002017S07078 2002 4 SI MM DINA 2002-01-23 21:00:00 TS -23.3275 52.7383 main 348 348 P____P______P_ SH102002 -23.3275 52.7499 TY 95 949 2 105 135 135 105 1001 127 30 -23.3276 52.7151 4 87 945 -23.3275 52.7499 TC 95 11 197
2002017S07078 2002 4 SI MM DINA 2002-01-24 00:00:00 TS -23.8667 52.5667 85 950 reunion main 401 401 O____O______O_ jtwc_sh SH102002 -23.9000 52.6000 TY 90 954 2 100 130 130 100 1002 125 30 -23.8000 52.5000 4 85 950 4.50000 5.50000 -23.9000 52.6000 TC 90 11 196
2002017S07078 2002 4 SI MM DINA 2002-01-24 03:00:00 TS -24.4133 52.4066 main 456 456 P____P______P_ SH102002 -24.4350 52.4498 TY 85 958 2 110 125 95 80 1002 127 22 -24.3700 52.3202 4 77 957 -24.4350 52.4498 TC 85 12 194
2002017S07078 2002 4 SI MM DINA 2002-01-24 06:00:00 TS -25.0000 52.2667 70 965 reunion main 498 490 O____O______O_ jtwc_sh SH102002 -25.0000 52.3000 TY 80 963 1 120 120 60 60 1002 130 15 -25.0000 52.2000 4 70 965 3.50000 4.50000 -25.0000 52.3000 TC 80 13 192
2002017S07078 2002 4 SI MM DINA 2002-01-24 09:00:00 TS -25.6425 52.1221 main 497 497 P____P______P_ SH102002 -25.6275 52.0983 TY 75 967 1 90 120 80 60 1002 155 15 -25.6725 52.1698 4 67 967 -25.6275 52.0983 TC 75 13 188
2002017S07078 2002 4 SI MM DINA 2002-01-24 12:00:00 TS -26.3000 52.0667 65 970 reunion main 521 521 O____O______O_ jtwc_sh SH102002 -26.3000 52.0000 TY 70 972 1 60 120 100 60 1002 180 15 -26.3000 52.2000 4 65 970 3.00000 4.50000 -26.3000 52.0000 TC 70 13 178
2002017S07078 2002 4 SI MM DINA 2002-01-24 15:00:00 TS -26.9366 52.1663 main 551 551 P____P______P_ SH102002 -27.0225 52.1319 TY 62 978 0 65 132 105 65 1002 162 15 -26.7650 52.2351 4 62 972 -27.0225 52.1319 TC 62 13 168
2002017S07078 2002 4 SI MM DINA 2002-01-24 18:00:00 TS -27.5333 52.3667 60 975 reunion main 597 597 O____O______O_ jtwc_sh SH102002 -27.7000 52.4000 TS 55 984 0 70 145 110 70 1002 145 15 -27.2000 52.3000 3 60 975 3.00000 4.00000 -27.7000 52.4000 TC 55 12 161
2002017S07078 2002 4 SI MM DINA 2002-01-24 21:00:00 TS -28.0826 52.6074 main 646 646 P____P______P_ SH102002 -28.2602 52.7295 TS 50 987 0 -27.7274 52.3630 3 60 975 -28.2602 52.7295 TC 50 11 158
2002017S07078 2002 4 SI MM DINA 2002-01-25 00:00:00 TS -28.5667 52.8333 60 975 reunion main 693 693 O____O______O_ jtwc_sh SH102002 -28.7000 53.0000 TS 45 991 0 -28.3000 52.5000 3 60 975 3.00000 4.00000 -28.7000 53.0000 TC 45 10 162
2002017S07078 2002 4 SI MM DINA 2002-01-25 03:00:00 TS -28.9915 52.9362 main 727 727 P____P______P_ SH102002 -29.0224 53.0307 TS 40 994 0 -28.9299 52.7472 3 60 976 -29.0224 53.0307 TC 40 8 167
2002017S07078 2002 4 SI MM DINA 2002-01-25 06:00:00 MX -29.3800 53.0400 60 978 reunion main 762 762 O____O______O_ jtwc_sh SH102002 -29.3000 53.0000 TS 35 997 0 -29.5000 53.1000 5 60 978 9.90000 -29.3000 53.0000 TC 35 8 158
2002017S07078 2002 4 SI MM DINA 2002-01-25 09:00:00 MX -29.7587 53.2851 main 812 812 P____P______P_ SH102002 -29.6301 53.0644 TS 35 997 0 -29.8873 53.5057 5 57 979 -29.6301 53.0644 TC 35 10 141
2002017S07078 2002 4 SI MM DINA 2002-01-25 12:00:00 MX -30.1333 53.7333 55 980 reunion main 863 863 O____O______O_ jtwc_sh SH102002 -30.0000 53.2000 TS 35 997 0 -30.2000 54.0000 5 55 980 9.90000 -30.0000 53.2000 TC 35 14 126
2002017S07078 2002 4 SI MM DINA 2002-01-25 15:00:00 ET -30.5647 54.5551 main 965 965 _____P________ SH102002 TS -1 -30.5647 54.5551 5 52 981 TC 15 121
2002017S07078 2002 4 SI MM DINA 2002-01-25 18:00:00 ET -30.9000 55.2000 50 983 reunion main 1031 1031 _____O________ -30.9000 55.2000 5 50 983 9.90000 13 116
2002017S07078 2002 4 SI MM DINA 2002-01-25 21:00:00 ET -31.1577 55.9431 main 1095 1095 _____P________ -31.1577 55.9431 5 47 984 14 111
2002017S07078 2002 4 SI MM DINA 2002-01-26 00:00:00 ET -31.4000 56.7000 45 985 reunion main 1122 1122 _____O________ -31.4000 56.7000 5 45 985 9.90000 13 111
2002017S07078 2002 4 SI MM DINA 2002-01-26 03:00:00 ET -31.6240 57.3375 main 1151 1151 _____P________ -31.6240 57.3375 5 45 985 13 118
2002017S07078 2002 4 SI MM DINA 2002-01-26 06:00:00 ET -32.0000 58.0000 45 985 reunion main 1207 1207 _____O________ -32.0000 58.0000 5 45 985 9.90000 17 130
2002017S07078 2002 4 SI MM DINA 2002-01-26 09:00:00 ET -32.7132 58.8549 main 1303 1303 _____P________ -32.7132 58.8549 5 45 985 21 136
2002017S07078 2002 4 SI MM DINA 2002-01-26 12:00:00 ET -33.5000 59.7000 45 985 reunion main 1409 1409 _____O________ -33.5000 59.7000 5 45 985 9.90000 19 138
2002017S07078 2002 4 SI MM DINA 2002-01-26 15:00:00 ET -34.0865 60.3396 main 1490 1490 _____P________ -34.0865 60.3396 5 42 986 15 138
2002017S07078 2002 4 SI MM DINA 2002-01-26 18:00:00 ET -34.6000 60.9000 40 988 reunion main 1561 1561 _____O________ -34.6000 60.9000 5 40 988 9.90000 14 137
2002017S07078 2002 4 SI MM DINA 2002-01-26 21:00:00 ET -35.1222 61.5005 main 1633 1569 _____P________ -35.1222 61.5005 5 40 988 14 136
2002017S07078 2002 4 SI MM DINA 2002-01-27 00:00:00 ET -35.6000 62.1000 40 988 reunion main 1569 1509 _____O________ -35.6000 62.1000 5 40 988 9.90000 13 131
2002017S07078 2002 4 SI MM DINA 2002-01-27 03:00:00 ET -35.9925 62.7235 main 1509 1451 _____P________ -35.9925 62.7235 5 40 989 13 129
2002017S07078 2002 4 SI MM DINA 2002-01-27 06:00:00 ET -36.4000 63.3000 40 990 reunion main 1451 1385 _____O________ -36.4000 63.3000 5 40 990 9.90000 13 138
2002017S07078 2002 4 SI MM DINA 2002-01-27 09:00:00 ET -36.9423 63.7949 main 1385 1311 _____P________ -36.9423 63.7949 5 37 991 13 147
2002017S07078 2002 4 SI MM DINA 2002-01-27 12:00:00 ET -37.5000 64.2000 35 993 reunion main 1311 1251 _____O________ -37.5000 64.2000 5 35 993 9.90000 12 151
2002017S07078 2002 4 SI MM DINA 2002-01-27 15:00:00 ET -37.9948 64.5380 main 1251 1201 _____P________ -37.9948 64.5380 5 35 994 10 152
2002017S07078 2002 4 SI MM DINA 2002-01-27 18:00:00 ET -38.4000 64.8000 35 995 reunion main 1201 1164 _____O________ -38.4000 64.8000 5 35 995 9.90000 8 154
2002017S07078 2002 4 SI MM DINA 2002-01-27 21:00:00 ET -38.6871 64.9784 main 1164 1139 _____P________ -38.6871 64.9784 5 35 995 6 148
2002017S07078 2002 4 SI MM DINA 2002-01-28 00:00:00 ET -38.9000 65.2000 35 995 reunion main 1139 1120 _____O________ -38.9000 65.2000 5 35 995 9.90000 6 128
2002017S07078 2002 4 SI MM DINA 2002-01-28 03:00:00 ET -39.0549 65.5915 main 1109 1079 _____P________ -39.0549 65.5915 5 35 996 8 120
2002017S07078 2002 4 SI MM DINA 2002-01-28 06:00:00 ET -39.3000 66.1000 35 998 reunion main 1079 1027 _____O________ -39.3000 66.1000 5 35 998 9.90000 11 131
2002017S07078 2002 4 SI MM DINA 2002-01-28 09:00:00 ET -39.7782 66.6792 main 1015 942 _____P________ -39.7782 66.6792 5 32 999 14 140
2002017S07078 2002 4 SI MM DINA 2002-01-28 12:00:00 ET -40.4000 67.3000 30 1000 reunion main 942 _____O________ -40.4000 67.3000 5 30 1000 9.90000 16 143

About IBTrACS Database

This database is a web-friendly format of International Best Track Archive for Climate Stewardship (IBTrACS), a global best track data archive curated by NOAA dating back to 1842.

Updated: 2021-10-27